Kingston upon Thames, United Kingdom
Current Conditions -  °F | °C
As of 8:20 AM on Sunday 26 Oct 2014 (Local Time) from EGLL Reporting Station
Broken Clouds Broken Clouds  
Wind Chill: 13°   Ceiling: 2800
Heat Index: 13°   Visibility: 6mi
Dew Point:   Wind: 8mph
Humidity: 77%   Direction: 190°S
Pressure: 30.15"   Gusts: NA
Location:  51.41°N, 0.3°W
Report Text: EGLL 260720Z 19007KT 170V250 9999 BKN028 13/09 Q1021 NOSIG
Loading
Personal Weather Stations






























Interactive Weather Map
Tropical Storm Tracking
New forecast layout! Learn more

10-Day Weather Forecast

Advertisements
Track Severe Weather on mobile